createdAt,value
2018-11-21T00:00:14.879Z,80.70
2018-11-21T00:01:14.863Z,80.80
2018-11-21T00:02:14.846Z,80.73
2018-11-21T00:03:14.833Z,80.94
2018-11-21T00:04:14.826Z,80.84
2018-11-21T00:05:14.811Z,81.04
2018-11-21T00:06:14.801Z,81.01
2018-11-21T00:07:14.792Z,80.90
2018-11-21T00:08:14.782Z,81.01
2018-11-21T00:09:14.771Z,81.15
2018-11-21T00:10:14.758Z,81.21
2018-11-21T00:11:14.747Z,80.90
2018-11-21T00:12:14.736Z,80.80
2018-11-21T00:13:14.725Z,80.90
2018-11-21T00:14:14.714Z,81.01
2018-11-21T00:15:14.713Z,80.90
2018-11-21T00:16:14.693Z,81.04
2018-11-21T00:17:14.682Z,81.25
2018-11-21T00:18:14.672Z,80.84
2018-11-21T00:19:14.662Z,81.46
2018-11-21T00:20:14.651Z,81.67
2018-11-21T00:21:14.637Z,81.46
2018-11-21T00:22:14.627Z,81.56
2018-11-21T00:23:14.618Z,81.67
2018-11-21T00:24:14.608Z,81.56
2018-11-21T00:25:14.603Z,81.11
2018-11-21T00:26:14.586Z,81.21
2018-11-21T00:27:14.578Z,81.01
2018-11-21T00:28:14.563Z,80.90
2018-11-21T00:29:14.554Z,80.90
2018-11-21T00:30:14.546Z,80.90
2018-11-21T00:31:14.534Z,81.01
2018-11-21T00:32:14.521Z,80.80
2018-11-21T00:33:14.512Z,80.49
2018-11-21T00:34:14.499Z,81.11
2018-11-21T00:35:14.487Z,81.21
2018-11-21T00:36:14.479Z,80.80
2018-11-21T00:37:14.465Z,81.01
2018-11-21T00:38:14.459Z,81.21
2018-11-21T00:39:14.445Z,81.11
2018-11-21T00:40:14.434Z,81.32
2018-11-21T00:41:14.426Z,81.15
2018-11-21T00:42:14.414Z,81.46
2018-11-21T00:43:14.409Z,81.35
2018-11-21T00:44:14.394Z,81.46
2018-11-21T00:45:14.384Z,81.67
2018-11-21T00:46:14.371Z,81.67
2018-11-21T00:47:14.359Z,81.77
2018-11-21T00:48:14.350Z,81.77
2018-11-21T00:49:14.339Z,81.77
2018-11-21T00:50:14.327Z,82.40
2018-11-21T00:51:14.317Z,82.29
2018-11-21T00:52:14.307Z,82.29
2018-11-21T00:53:14.297Z,82.08
2018-11-21T00:54:14.283Z,82.04
2018-11-21T00:55:14.274Z,81.63
2018-11-21T00:56:14.271Z,81.53
2018-11-21T00:57:14.263Z,81.21
2018-11-21T00:58:14.241Z,81.53
2018-11-21T00:59:14.231Z,81.73
2018-11-21T01:00:14.224Z,81.63
2018-11-21T01:01:14.217Z,81.63
2018-11-21T01:02:14.199Z,81.73
2018-11-21T01:03:14.189Z,81.42
2018-11-21T01:04:14.179Z,81.53
2018-11-21T01:05:14.168Z,81.42
2018-11-21T01:06:14.157Z,81.42
2018-11-21T01:07:14.148Z,81.07
2018-11-21T01:08:14.136Z,80.87
2018-11-21T01:09:14.129Z,80.90
2018-11-21T01:10:14.114Z,81.32
2018-11-21T01:11:14.104Z,81.32
2018-11-21T01:12:14.092Z,81.28
2018-11-21T01:13:14.081Z,81.07
2018-11-21T01:14:14.073Z,81.21
2018-11-21T01:15:14.061Z,81.53
2018-11-21T01:16:14.049Z,81.63
2018-11-21T01:17:14.039Z,81.73
2018-11-21T01:18:14.027Z,81.94
2018-11-21T01:19:14.018Z,81.84
2018-11-21T01:20:14.006Z,81.84
2018-11-21T01:21:13.997Z,82.36
2018-11-21T01:22:13.985Z,82.25
2018-11-21T01:23:13.974Z,81.94
2018-11-21T01:24:13.966Z,81.94
2018-11-21T01:25:13.953Z,81.73
2018-11-21T01:26:13.943Z,81.94
2018-11-21T01:27:13.940Z,81.84
2018-11-21T01:28:13.921Z,81.94
2018-11-21T01:29:13.913Z,82.15
2018-11-21T01:30:13.898Z,82.40
2018-11-21T01:31:13.890Z,82.19
2018-11-21T01:32:13.891Z,82.50
2018-11-21T01:33:13.869Z,82.71
2018-11-21T01:34:13.863Z,82.81
2018-11-21T01:35:13.851Z,82.61
2018-11-21T01:36:13.834Z,82.46
2018-11-21T01:37:13.832Z,82.04
2018-11-21T01:38:13.814Z,81.84
2018-11-21T01:39:13.809Z,82.04
2018-11-21T01:40:13.793Z,81.94
2018-11-21T01:41:13.780Z,82.04
2018-11-21T01:42:13.771Z,81.94
2018-11-21T01:43:13.760Z,82.04
2018-11-21T01:44:13.752Z,82.15
2018-11-21T01:45:13.742Z,82.04
2018-11-21T01:46:13.729Z,81.94
2018-11-21T01:47:13.716Z,81.94
2018-11-21T01:48:13.705Z,81.94
2018-11-21T01:49:13.695Z,82.04
2018-11-21T01:50:13.686Z,82.15
2018-11-21T01:51:13.673Z,82.04
2018-11-21T01:52:13.666Z,82.15
2018-11-21T01:53:13.653Z,82.15
2018-11-21T01:54:13.641Z,82.36
2018-11-21T01:55:13.632Z,82.15
2018-11-21T01:56:13.622Z,82.15
2018-11-21T01:57:13.611Z,82.04
2018-11-21T01:58:13.597Z,82.15
2018-11-21T01:59:13.589Z,82.04
2018-11-21T02:00:13.578Z,82.25
2018-11-21T02:01:13.566Z,82.36
2018-11-21T02:02:13.557Z,82.61
2018-11-21T02:03:13.546Z,82.61
2018-11-21T02:04:13.535Z,82.36
2018-11-21T02:05:13.525Z,82.61
2018-11-21T02:06:13.526Z,82.57
2018-11-21T02:07:13.503Z,82.57
2018-11-21T02:08:13.494Z,82.25
2018-11-21T02:09:13.483Z,82.25
2018-11-21T02:10:13.473Z,82.15
2018-11-21T02:11:13.465Z,82.25
2018-11-21T02:12:13.450Z,82.46
2018-11-21T02:13:13.441Z,83.02
2018-11-21T02:14:13.431Z,82.92
2018-11-21T02:15:13.417Z,82.61
2018-11-21T02:16:13.413Z,82.50
2018-11-21T02:17:13.397Z,82.81
2018-11-21T02:18:13.386Z,82.61
2018-11-21T02:19:13.376Z,82.19
2018-11-21T02:20:13.368Z,82.61
2018-11-21T02:21:13.356Z,82.71
2018-11-21T02:22:13.344Z,82.71
2018-11-21T02:23:13.332Z,82.61
2018-11-21T02:24:13.322Z,82.61
2018-11-21T02:25:13.313Z,82.40
2018-11-21T02:26:13.303Z,82.61
2018-11-21T02:27:13.290Z,82.71
2018-11-21T02:28:13.280Z,82.71
2018-11-21T02:29:13.270Z,82.81
2018-11-21T02:30:13.261Z,82.57
2018-11-21T02:31:13.249Z,82.25
2018-11-21T02:32:13.235Z,82.36
2018-11-21T02:33:13.230Z,82.36
2018-11-21T02:34:13.214Z,82.25
2018-11-21T02:35:13.210Z,82.25
2018-11-21T02:36:13.195Z,82.36
2018-11-21T02:37:13.184Z,82.36
2018-11-21T02:38:13.171Z,82.29
2018-11-21T02:39:13.163Z,82.61
2018-11-21T02:40:13.160Z,82.71
2018-11-21T02:41:13.142Z,82.81
2018-11-21T02:42:13.142Z,83.02
2018-11-21T02:43:13.121Z,82.92
2018-11-21T02:44:13.108Z,82.92
2018-11-21T02:45:13.099Z,83.12
2018-11-21T02:46:13.088Z,83.37
2018-11-21T02:47:13.077Z,83.47
2018-11-21T02:48:13.067Z,83.16
2018-11-21T02:49:13.055Z,83.37
2018-11-21T02:50:13.045Z,83.44
2018-11-21T02:51:13.035Z,83.44
2018-11-21T02:52:13.032Z,83.23
2018-11-21T02:53:13.011Z,83.02
2018-11-21T02:54:13.002Z,83.12
2018-11-21T02:55:12.994Z,83.23
2018-11-21T02:56:12.983Z,83.33
2018-11-21T02:57:12.969Z,83.44
2018-11-21T02:58:12.959Z,83.12
2018-11-21T02:59:12.951Z,83.23
2018-11-21T03:00:12.937Z,83.44
2018-11-21T03:01:12.926Z,83.12
2018-11-21T03:02:12.916Z,82.92
2018-11-21T03:03:12.904Z,83.02
2018-11-21T03:04:12.893Z,83.02
2018-11-21T03:05:12.895Z,83.23
2018-11-21T03:06:12.874Z,83.02
2018-11-21T03:07:12.862Z,82.92
2018-11-21T03:08:12.851Z,83.16
2018-11-21T03:09:12.841Z,83.37
2018-11-21T03:10:12.831Z,83.27
2018-11-21T03:11:12.821Z,83.79
2018-11-21T03:12:12.815Z,83.89
2018-11-21T03:13:12.796Z,84.24
2018-11-21T03:14:12.811Z,84.14
2018-11-21T03:15:12.777Z,84.24
2018-11-21T03:16:12.770Z,84.35
2018-11-21T03:17:12.755Z,84.55
2018-11-21T03:18:12.744Z,84.66
2018-11-21T03:19:12.732Z,84.35
2018-11-21T03:20:12.722Z,84.14
2018-11-21T03:21:12.714Z,84.45
2018-11-21T03:22:12.702Z,84.24
2018-11-21T03:23:12.692Z,84.14
2018-11-21T03:24:12.686Z,84.14
2018-11-21T03:25:12.673Z,84.24
2018-11-21T03:26:12.660Z,84.45
2018-11-21T03:27:12.650Z,84.86
2018-11-21T03:28:12.637Z,84.86
2018-11-21T03:29:12.629Z,84.97
2018-11-21T03:30:12.616Z,84.80
2018-11-21T03:31:12.621Z,85.32
2018-11-21T03:32:12.601Z,85.43
2018-11-21T03:33:12.584Z,85.43
2018-11-21T03:34:12.572Z,85.32
2018-11-21T03:35:12.563Z,85.32
2018-11-21T03:36:12.558Z,85.53
2018-11-21T03:37:12.542Z,85.32
2018-11-21T03:38:12.532Z,85.53
2018-11-21T03:39:12.522Z,85.74
2018-11-21T03:40:12.510Z,85.74
2018-11-21T03:41:12.499Z,85.53
2018-11-21T03:42:12.493Z,85.63
2018-11-21T03:43:12.477Z,85.63
2018-11-21T03:44:12.467Z,85.43
2018-11-21T03:45:12.455Z,85.63
2018-11-21T03:46:12.445Z,85.74
2018-11-21T03:47:12.448Z,85.63
2018-11-21T03:48:12.425Z,85.32
2018-11-21T03:49:12.413Z,85.22
2018-11-21T03:50:12.402Z,85.18
2018-11-21T03:51:12.397Z,85.08
2018-11-21T03:52:12.383Z,84.55
2018-11-21T03:53:12.370Z,84.80
2018-11-21T03:54:12.369Z,84.91
2018-11-21T03:55:12.349Z,85.01
2018-11-21T03:56:12.339Z,85.32
2018-11-21T03:57:12.330Z,85.57
2018-11-21T03:58:12.318Z,86.09
2018-11-21T03:59:12.308Z,86.09
2018-11-21T04:00:12.297Z,85.99
2018-11-21T04:01:12.285Z,85.88
2018-11-21T04:02:12.274Z,86.09
2018-11-21T04:03:12.263Z,86.19
2018-11-21T04:04:12.252Z,86.19
2018-11-21T04:05:12.246Z,86.51
2018-11-21T04:06:12.230Z,86.45
2018-11-21T04:07:12.221Z,86.65
2018-11-21T04:08:12.212Z,86.96
2018-11-21T04:09:12.200Z,86.96
2018-11-21T04:10:12.190Z,87.49
2018-11-21T04:11:12.178Z,87.39
2018-11-21T04:12:12.168Z,87.42
2018-11-21T04:13:12.158Z,87.42
2018-11-21T04:14:12.148Z,87.63
2018-11-21T04:15:12.136Z,87.84
2018-11-21T04:16:12.124Z,88.15
2018-11-21T04:17:12.124Z,88.15
2018-11-21T04:18:12.105Z,87.90
2018-11-21T04:19:12.096Z,87.49
2018-11-21T04:20:12.093Z,87.59
2018-11-21T04:21:12.072Z,87.39
2018-11-21T04:22:12.061Z,87.39
2018-11-21T04:23:12.052Z,87.59
2018-11-21T04:24:12.044Z,87.49
2018-11-21T04:25:12.030Z,87.17
2018-11-21T04:26:12.019Z,87.17
2018-11-21T04:27:12.008Z,86.86
2018-11-21T04:28:11.997Z,86.90
2018-11-21T04:29:11.988Z,87.01
2018-11-21T04:30:11.980Z,87.11
2018-11-21T04:31:11.966Z,87.42
2018-11-21T04:32:11.955Z,87.63
2018-11-21T04:33:11.945Z,88.05
2018-11-21T04:34:11.935Z,88.05
2018-11-21T04:35:11.925Z,88.26
2018-11-21T04:36:11.912Z,87.88
2018-11-21T04:37:11.901Z,87.88
2018-11-21T04:38:11.890Z,87.98
2018-11-21T04:39:11.884Z,87.88
2018-11-21T04:40:11.869Z,88.09
2018-11-21T04:41:11.859Z,88.92
2018-11-21T04:42:11.851Z,88.88
2018-11-21T04:43:11.841Z,88.67
2018-11-21T04:44:11.832Z,88.36
2018-11-21T04:45:11.818Z,87.84
2018-11-21T04:46:11.813Z,87.63
2018-11-21T04:47:11.795Z,87.84
2018-11-21T04:48:11.786Z,88.05
2018-11-21T04:49:11.773Z,88.05
2018-11-21T04:50:11.761Z,87.95
2018-11-21T04:51:11.753Z,87.84
2018-11-21T04:52:11.740Z,87.73
2018-11-21T04:53:11.731Z,87.73
2018-11-21T04:54:11.720Z,87.73
2018-11-21T04:55:11.714Z,87.59
2018-11-21T04:56:11.700Z,87.07
2018-11-21T04:57:11.688Z,87.07
2018-11-21T04:58:11.679Z,87.17
2018-11-21T04:59:11.667Z,87.39
2018-11-21T05:00:11.659Z,87.28
2018-11-21T05:01:11.646Z,87.28
2018-11-21T05:02:11.634Z,87.28
2018-11-21T05:03:11.624Z,87.07
2018-11-21T05:04:11.622Z,86.86
2018-11-21T05:05:11.602Z,86.55
2018-11-21T05:06:11.591Z,86.76
2018-11-21T05:07:11.582Z,86.65
2018-11-21T05:08:11.570Z,86.65
2018-11-21T05:09:11.563Z,86.76
2018-11-21T05:10:11.548Z,86.65
2018-11-21T05:11:11.540Z,86.55
2018-11-21T05:12:11.530Z,86.90
2018-11-21T05:13:11.516Z,87.28
2018-11-21T05:14:11.509Z,87.07
2018-11-21T05:15:11.502Z,86.76
2018-11-21T05:16:11.487Z,86.76
2018-11-21T05:17:11.482Z,86.55
2018-11-21T05:18:11.467Z,86.76
2018-11-21T05:19:11.457Z,86.55
2018-11-21T05:20:11.446Z,86.76
2018-11-21T05:21:11.433Z,86.65
2018-11-21T05:22:11.421Z,86.34
2018-11-21T05:23:11.415Z,86.86
2018-11-21T05:24:11.400Z,86.65
2018-11-21T05:25:11.388Z,86.65
2018-11-21T05:26:11.378Z,86.65
2018-11-21T05:27:11.368Z,86.34
2018-11-21T05:28:11.356Z,86.34
2018-11-21T05:29:11.348Z,86.13
2018-11-21T05:30:11.336Z,86.02
2018-11-21T05:31:11.325Z,86.02
2018-11-21T05:32:11.315Z,86.24
2018-11-21T05:33:11.304Z,86.13
2018-11-21T05:34:11.297Z,86.13
2018-11-21T05:35:11.284Z,86.13
2018-11-21T05:36:11.271Z,86.34
2018-11-21T05:37:11.262Z,86.24
2018-11-21T05:38:11.249Z,86.59
2018-11-21T05:39:11.240Z,86.90
2018-11-21T05:40:11.228Z,86.80
2018-11-21T05:41:11.219Z,86.80
2018-11-21T05:42:11.207Z,86.80
2018-11-21T05:43:11.196Z,87.25
2018-11-21T05:44:11.187Z,87.67
2018-11-21T05:45:11.179Z,87.98
2018-11-21T05:46:11.170Z,87.78
2018-11-21T05:47:11.155Z,87.53
2018-11-21T05:48:11.146Z,87.63
2018-11-21T05:49:11.135Z,87.21
2018-11-21T05:50:11.124Z,87.25
2018-11-21T05:51:11.111Z,87.84
2018-11-21T05:52:11.109Z,87.95
2018-11-21T05:53:11.091Z,87.49
2018-11-21T05:54:11.082Z,86.96
2018-11-21T05:55:11.068Z,86.13
2018-11-21T05:56:11.060Z,85.82
2018-11-21T05:57:11.047Z,85.71
2018-11-21T05:58:11.036Z,86.02
2018-11-21T05:59:11.028Z,86.13
2018-11-21T06:00:11.016Z,86.13
2018-11-21T06:01:11.006Z,86.13
2018-11-21T06:02:10.996Z,86.02
2018-11-21T06:03:10.983Z,85.92
2018-11-21T06:04:10.978Z,85.82
2018-11-21T06:05:10.963Z,85.71
2018-11-21T06:06:10.955Z,85.71
2018-11-21T06:07:10.943Z,85.82
2018-11-21T06:08:10.932Z,85.82
2018-11-21T06:09:10.921Z,86.24
2018-11-21T06:10:10.912Z,86.69
2018-11-21T06:11:10.899Z,86.55
2018-11-21T06:12:10.887Z,86.24
2018-11-21T06:13:10.877Z,85.82
2018-11-21T06:14:10.869Z,85.82
2018-11-21T06:15:10.858Z,86.13
2018-11-21T06:16:10.846Z,86.24
2018-11-21T06:17:10.835Z,86.24
2018-11-21T06:18:10.823Z,86.24
2018-11-21T06:19:10.816Z,85.82
2018-11-21T06:20:10.805Z,86.24
2018-11-21T06:21:10.793Z,86.13
2018-11-21T06:22:10.781Z,86.02
2018-11-21T06:23:10.772Z,85.92
2018-11-21T06:24:10.762Z,86.02
2018-11-21T06:25:10.752Z,85.82
2018-11-21T06:26:10.738Z,85.92
2018-11-21T06:27:11.206Z,85.82
2018-11-21T06:28:10.721Z,85.92
2018-11-21T06:29:10.708Z,85.51
2018-11-21T06:30:10.698Z,85.82
2018-11-21T06:31:10.684Z,86.27
2018-11-21T06:32:10.682Z,86.69
2018-11-21T06:33:10.665Z,86.59
2018-11-21T06:34:10.655Z,86.90
2018-11-21T06:35:10.645Z,87.11
2018-11-21T06:36:10.634Z,87.11
2018-11-21T06:37:10.622Z,87.01
2018-11-21T06:38:10.613Z,86.90
2018-11-21T06:39:10.602Z,86.45
2018-11-21T06:40:10.589Z,86.38
2018-11-21T06:41:10.579Z,86.59
2018-11-21T06:42:10.568Z,86.80
2018-11-21T06:43:10.559Z,87.01
2018-11-21T06:44:10.551Z,87.21
2018-11-21T06:45:10.537Z,87.42
2018-11-21T06:46:10.530Z,86.55
2018-11-21T06:47:10.516Z,86.65
2018-11-21T06:48:10.506Z,86.13
2018-11-21T06:49:10.496Z,86.07
2018-11-21T06:50:10.486Z,86.48
2018-11-21T06:51:10.479Z,86.80
2018-11-21T06:52:10.467Z,86.80
2018-11-21T06:53:10.451Z,86.90
2018-11-21T06:54:10.446Z,87.01
2018-11-21T06:55:10.434Z,86.69
2018-11-21T06:56:10.420Z,86.69
2018-11-21T06:57:10.410Z,86.80
2018-11-21T06:58:10.399Z,86.48
2018-11-21T06:59:10.390Z,86.48
2018-11-21T07:00:10.378Z,86.59
2018-11-21T07:01:10.367Z,86.59
2018-11-21T07:02:10.357Z,86.69
2018-11-21T07:03:10.351Z,86.48
2018-11-21T07:04:10.421Z,86.55
2018-11-21T07:05:10.345Z,86.45
2018-11-21T07:06:10.317Z,86.34
2018-11-21T07:07:10.314Z,86.02
2018-11-21T07:08:10.332Z,85.92
2018-11-21T07:09:10.356Z,86.02
2018-11-21T07:10:10.272Z,85.92
2018-11-21T07:11:10.314Z,85.68
2018-11-21T07:12:10.330Z,85.36
2018-11-21T07:13:11.207Z,85.15
2018-11-21T07:14:10.234Z,84.94
2018-11-21T07:15:10.225Z,84.84
2018-11-21T07:16:10.283Z,84.84
2018-11-21T07:17:10.234Z,84.74
2018-11-21T07:18:10.186Z,84.63
2018-11-21T07:19:10.186Z,84.53
2018-11-21T07:20:10.175Z,84.49
2018-11-21T07:21:10.165Z,84.38
2018-11-21T07:22:10.152Z,84.28
2018-11-21T07:23:10.132Z,84.49
2018-11-21T07:24:10.121Z,84.60
2018-11-21T07:25:10.110Z,84.49
2018-11-21T07:26:10.100Z,84.49
2018-11-21T07:27:10.088Z,84.60
2018-11-21T07:28:13.202Z,84.60
2018-11-21T07:29:10.068Z,84.49
2018-11-21T07:30:10.055Z,84.49
2018-11-21T07:31:10.047Z,84.60
2018-11-21T07:32:10.035Z,84.70
2018-11-21T07:33:10.025Z,84.60
2018-11-21T07:34:10.016Z,84.49
2018-11-21T07:35:10.003Z,84.60
2018-11-21T07:36:09.993Z,84.38
2018-11-21T07:37:09.983Z,84.17
2018-11-21T07:38:09.973Z,84.07
2018-11-21T07:39:09.959Z,84.17
2018-11-21T07:40:09.949Z,84.28
2018-11-21T07:41:09.940Z,84.28
2018-11-21T07:42:09.930Z,84.17
2018-11-21T07:43:09.922Z,83.72
2018-11-21T07:44:09.910Z,83.72
2018-11-21T07:45:09.895Z,83.31
2018-11-21T07:46:09.887Z,83.52
2018-11-21T07:47:09.876Z,83.45
2018-11-21T07:48:09.864Z,83.76
2018-11-21T07:49:09.854Z,83.97
2018-11-21T07:50:09.844Z,83.97
2018-11-21T07:51:09.833Z,84.07
2018-11-21T07:52:09.822Z,84.38
2018-11-21T07:53:09.813Z,84.28
2018-11-21T07:54:09.799Z,84.07
2018-11-21T07:55:09.790Z,83.86
2018-11-21T07:56:09.779Z,83.72
2018-11-21T07:57:09.772Z,83.31
2018-11-21T07:58:09.757Z,83.41
2018-11-21T07:59:09.746Z,83.52
2018-11-21T08:00:09.822Z,83.72
2018-11-21T08:01:09.729Z,83.83
2018-11-21T08:02:09.715Z,83.20
2018-11-21T08:03:09.704Z,83.31
2018-11-21T08:04:09.693Z,83.52
2018-11-21T08:05:09.683Z,83.62
2018-11-21T08:06:09.671Z,83.62
2018-11-21T08:07:09.661Z,83.52
2018-11-21T08:08:09.652Z,83.62
2018-11-21T08:09:09.641Z,83.62
2018-11-21T08:10:09.633Z,83.31
2018-11-21T08:11:09.619Z,83.86
2018-11-21T08:12:09.608Z,84.17
2018-11-21T08:13:09.596Z,83.83
2018-11-21T08:14:09.589Z,83.72
2018-11-21T08:15:09.579Z,83.62
2018-11-21T08:16:09.565Z,83.62
2018-11-21T08:17:09.555Z,83.62
2018-11-21T08:18:09.545Z,83.41
2018-11-21T08:19:09.533Z,83.09
2018-11-21T08:20:09.524Z,83.41
2018-11-21T08:21:09.513Z,83.66
2018-11-21T08:22:09.502Z,83.62
2018-11-21T08:23:09.490Z,83.83
2018-11-21T08:24:09.481Z,83.83
2018-11-21T08:25:09.468Z,83.72
2018-11-21T08:26:09.461Z,83.62
2018-11-21T08:27:09.447Z,83.31
2018-11-21T08:28:09.439Z,83.27
2018-11-21T08:29:09.428Z,82.95
2018-11-21T08:30:09.422Z,82.54
2018-11-21T08:31:09.417Z,82.85
2018-11-21T08:32:09.398Z,83.20
2018-11-21T08:33:09.384Z,83.06
2018-11-21T08:34:09.374Z,82.54
2018-11-21T08:35:09.362Z,82.64
2018-11-21T08:36:09.352Z,82.40
2018-11-21T08:37:09.346Z,81.87
2018-11-21T08:38:09.331Z,82.08
2018-11-21T08:39:09.326Z,81.87
2018-11-21T08:40:09.310Z,82.23
2018-11-21T08:41:09.299Z,82.44
2018-11-21T08:42:09.289Z,82.44
2018-11-21T08:43:09.276Z,82.44
2018-11-21T08:44:09.268Z,82.85
2018-11-21T08:45:09.256Z,82.85
2018-11-21T08:46:09.246Z,82.95
2018-11-21T08:47:09.234Z,82.64
2018-11-21T08:48:09.224Z,82.85
2018-11-21T08:49:09.226Z,82.75
2018-11-21T08:50:09.200Z,82.75
2018-11-21T08:51:09.191Z,82.40
2018-11-21T08:52:09.182Z,81.98
2018-11-21T08:53:09.171Z,81.98
2018-11-21T08:54:09.163Z,82.29
2018-11-21T08:55:09.212Z,82.40
2018-11-21T08:56:09.139Z,82.19
2018-11-21T08:57:09.126Z,81.84
2018-11-21T08:58:09.117Z,81.63
2018-11-21T08:59:09.115Z,81.53
2018-11-21T09:00:09.093Z,81.32
2018-11-21T09:01:09.085Z,81.42
2018-11-21T09:02:09.073Z,81.11
2018-11-21T09:03:09.062Z,80.87
2018-11-21T09:04:09.051Z,80.76
2018-11-21T09:05:09.039Z,80.24
2018-11-21T09:06:09.029Z,80.35
2018-11-21T09:07:09.020Z,80.97
2018-11-21T09:08:09.010Z,80.10
2018-11-21T09:09:08.998Z,80.10
2018-11-21T09:10:08.988Z,80.21
2018-11-21T09:11:08.977Z,79.90
2018-11-21T09:12:08.968Z,80.48
2018-11-21T09:13:08.954Z,79.44
2018-11-21T09:14:08.944Z,79.02
2018-11-21T09:15:08.940Z,79.33
2018-11-21T09:16:08.924Z,78.30
2018-11-21T09:17:08.913Z,78.82
2018-11-21T09:18:08.901Z,78.50
2018-11-21T09:19:08.891Z,78.92
2018-11-21T09:20:08.878Z,79.47
2018-11-21T09:21:08.868Z,79.68
2018-11-21T09:22:08.876Z,79.76
2018-11-21T09:23:08.846Z,79.09
2018-11-21T09:24:08.838Z,78.57
2018-11-21T09:25:08.825Z,78.47
2018-11-21T09:26:08.819Z,78.78
2018-11-21T09:27:08.804Z,78.68
2018-11-21T09:28:08.795Z,77.85
2018-11-21T09:29:08.834Z,77.71
2018-11-21T09:30:08.777Z,77.71
2018-11-21T09:31:08.762Z,77.36
2018-11-21T09:32:08.754Z,77.26
2018-11-21T09:33:08.741Z,76.53
2018-11-21T09:34:08.735Z,76.43
2018-11-21T09:35:08.718Z,76.74
2018-11-21T09:36:08.708Z,77.67
2018-11-21T09:37:08.698Z,77.26
2018-11-21T09:38:08.685Z,76.74
2018-11-21T09:39:08.673Z,76.98
2018-11-21T09:40:08.662Z,76.88
2018-11-21T09:41:08.654Z,76.78
2018-11-21T09:42:08.642Z,77.26
2018-11-21T09:43:08.633Z,77.47
2018-11-21T09:44:08.629Z,75.98
2018-11-21T09:45:08.615Z,75.56
2018-11-21T09:46:08.605Z,75.98
2018-11-21T09:47:08.594Z,76.50
2018-11-21T09:48:08.580Z,76.56
2018-11-21T09:49:08.567Z,75.63
2018-11-21T09:50:08.556Z,75.01
2018-11-21T09:51:08.545Z,74.70
2018-11-21T09:52:08.536Z,75.25
2018-11-21T09:53:08.523Z,75.25
2018-11-21T09:54:08.516Z,75.46
2018-11-21T09:55:08.511Z,76.43
2018-11-21T09:56:08.494Z,76.64
2018-11-21T09:57:08.483Z,76.22
2018-11-21T09:58:08.476Z,76.78
2018-11-21T09:59:08.459Z,76.98
2018-11-21T10:00:08.448Z,77.30
2018-11-21T10:01:08.440Z,77.64
2018-11-21T10:02:08.427Z,78.16
2018-11-21T10:03:08.416Z,78.16
2018-11-21T10:04:08.404Z,78.05
2018-11-21T10:05:08.393Z,79.06
2018-11-21T10:06:08.387Z,77.81
2018-11-21T10:07:08.373Z,77.26
2018-11-21T10:08:08.365Z,77.47
2018-11-21T10:09:08.352Z,76.50
2018-11-21T10:10:08.340Z,75.56
2018-11-21T10:11:08.329Z,75.67
2018-11-21T10:12:08.322Z,75.81
2018-11-21T10:13:08.309Z,76.50
2018-11-21T10:14:08.297Z,76.64
2018-11-21T10:15:08.290Z,76.39
2018-11-21T10:16:08.277Z,75.98
2018-11-21T10:17:08.266Z,75.87
2018-11-21T10:18:08.256Z,76.01
2018-11-21T10:19:08.250Z,76.47
2018-11-21T10:20:08.235Z,76.88
2018-11-21T10:21:08.222Z,76.74
2018-11-21T10:22:08.212Z,76.64
2018-11-21T10:23:08.203Z,76.64
2018-11-21T10:24:08.192Z,77.12
2018-11-21T10:25:08.178Z,75.84
2018-11-21T10:26:08.170Z,75.39
2018-11-21T10:27:08.160Z,74.29
2018-11-21T10:28:08.147Z,74.29
2018-11-21T10:29:08.135Z,75.46
2018-11-21T10:30:08.126Z,76.29
2018-11-21T10:31:08.118Z,75.67
2018-11-21T10:32:08.108Z,75.73
2018-11-21T10:33:08.095Z,74.67
2018-11-21T10:34:08.085Z,74.53
2018-11-21T10:35:08.073Z,74.01
2018-11-21T10:36:08.065Z,73.35
2018-11-21T10:37:08.050Z,73.35
2018-11-21T10:38:08.039Z,73.18
2018-11-21T10:39:08.030Z,74.15
2018-11-21T10:40:08.021Z,74.21
2018-11-21T10:41:08.007Z,73.60
2018-11-21T10:42:07.997Z,73.42
2018-11-21T10:43:07.984Z,74.49
2018-11-21T10:44:07.975Z,74.94
2018-11-21T10:45:07.965Z,75.87
2018-11-21T10:46:07.954Z,75.87
2018-11-21T10:47:07.954Z,76.39
2018-11-21T10:48:07.934Z,76.56
2018-11-21T10:49:07.923Z,75.39
2018-11-21T10:50:07.910Z,74.01
2018-11-21T10:51:07.911Z,73.08
2018-11-21T10:52:07.886Z,74.12
2018-11-21T10:53:07.878Z,73.25
2018-11-21T10:54:07.868Z,74.18
2018-11-21T10:55:07.871Z,75.12
2018-11-21T10:56:07.846Z,74.70
2018-11-21T10:57:07.836Z,74.63
2018-11-21T10:58:07.825Z,75.15
2018-11-21T10:59:07.815Z,75.32
2018-11-21T11:00:07.804Z,75.15
2018-11-21T11:01:07.791Z,75.87
2018-11-21T11:02:07.783Z,75.12
2018-11-21T11:03:07.769Z,74.46
2018-11-21T11:04:07.811Z,73.66
2018-11-21T11:05:07.760Z,74.29
2018-11-21T11:06:07.756Z,75.84
2018-11-21T11:07:07.742Z,74.84
2018-11-21T11:08:07.717Z,75.08
2018-11-21T11:09:07.704Z,75.46
2018-11-21T11:10:07.692Z,75.73
2018-11-21T11:11:07.685Z,74.70
2018-11-21T11:12:07.671Z,74.18
2018-11-21T11:13:07.661Z,74.49
2018-11-21T11:14:07.650Z,74.60
2018-11-21T11:15:07.721Z,74.81
2018-11-21T11:16:07.846Z,74.70
2018-11-21T11:17:07.619Z,74.91
2018-11-21T11:18:07.608Z,74.84
2018-11-21T11:19:07.597Z,75.36
2018-11-21T11:20:08.702Z,75.25
2018-11-21T11:21:07.576Z,75.87
2018-11-21T11:22:07.565Z,75.46
2018-11-21T11:23:07.553Z,74.53
2018-11-21T11:24:07.544Z,75.01
2018-11-21T11:25:07.532Z,74.73
2018-11-21T11:26:07.525Z,75.15
2018-11-21T11:27:07.517Z,75.77
2018-11-21T11:28:07.500Z,75.01
2018-11-21T11:29:07.488Z,74.60
2018-11-21T11:30:07.478Z,74.70
2018-11-21T11:31:07.468Z,74.18
2018-11-21T11:32:07.457Z,74.63
2018-11-21T11:33:07.447Z,74.60
2018-11-21T11:34:07.436Z,74.91
2018-11-21T11:35:07.428Z,74.60
2018-11-21T11:36:07.413Z,74.81
2018-11-21T11:37:07.403Z,74.39
2018-11-21T11:38:07.392Z,74.18
2018-11-21T11:39:07.380Z,74.18
2018-11-21T11:40:07.370Z,74.29
2018-11-21T11:41:07.360Z,73.98
2018-11-21T11:42:07.348Z,74.08
2018-11-21T11:43:07.337Z,73.84
2018-11-21T11:44:07.332Z,73.73
2018-11-21T11:45:07.318Z,73.49
2018-11-21T11:46:07.307Z,72.74
2018-11-21T11:47:07.295Z,72.53
2018-11-21T11:48:07.292Z,71.25
2018-11-21T11:49:07.273Z,70.73
2018-11-21T11:50:08.279Z,70.87
2018-11-21T11:51:07.257Z,72.01
2018-11-21T11:52:07.241Z,71.73
2018-11-21T11:53:07.231Z,72.80
2018-11-21T11:54:07.218Z,72.91
2018-11-21T11:55:07.210Z,73.35
2018-11-21T11:56:07.196Z,73.35
2018-11-21T11:57:07.189Z,73.66
2018-11-21T11:58:07.176Z,73.77
2018-11-21T11:59:07.163Z,74.21
2018-11-21T12:00:07.154Z,74.63
2018-11-21T12:01:07.143Z,74.32
2018-11-21T12:02:07.133Z,74.53
2018-11-21T12:03:07.122Z,74.53
2018-11-21T12:04:07.121Z,74.49
2018-11-21T12:05:07.246Z,73.80
2018-11-21T12:06:07.207Z,74.81
2018-11-21T12:07:07.185Z,74.21
2018-11-21T12:08:07.069Z,74.42
2018-11-21T12:09:07.057Z,74.11
2018-11-21T12:10:07.046Z,74.21
2018-11-21T12:11:07.040Z,75.01
2018-11-21T12:12:07.059Z,73.98
2018-11-21T12:13:07.018Z,73.46
2018-11-21T12:14:07.034Z,73.56
2018-11-21T12:15:06.994Z,73.56
2018-11-21T12:16:06.982Z,73.49
2018-11-21T12:17:06.970Z,74.11
2018-11-21T12:18:06.981Z,74.32
2018-11-21T12:19:06.952Z,73.87
2018-11-21T12:20:06.955Z,73.87
2018-11-21T12:21:07.045Z,73.87
2018-11-21T12:22:06.943Z,73.56
2018-11-21T12:23:06.922Z,73.11
2018-11-21T12:24:06.898Z,73.11
2018-11-21T12:25:06.885Z,73.32
2018-11-21T12:26:10.618Z,73.21
2018-11-21T12:27:06.863Z,72.60
2018-11-21T12:28:06.854Z,72.60
2018-11-21T12:29:06.847Z,72.60
2018-11-21T12:30:06.832Z,73.04
2018-11-21T12:31:06.824Z,73.49
2018-11-21T12:32:06.811Z,74.21
2018-11-21T12:33:06.799Z,74.67
2018-11-21T12:34:06.788Z,75.29
2018-11-21T12:35:06.779Z,75.50
2018-11-21T12:36:06.765Z,75.39
2018-11-21T12:37:06.758Z,75.18
2018-11-21T12:38:06.849Z,75.29
2018-11-21T12:39:06.795Z,75.53
2018-11-21T12:40:06.780Z,75.74
2018-11-21T12:41:06.711Z,76.29
2018-11-21T12:42:06.701Z,76.39
2018-11-21T12:43:07.637Z,76.67
2018-11-21T12:44:06.684Z,76.15
2018-11-21T12:45:06.671Z,75.70
2018-11-21T12:46:06.661Z,75.81
2018-11-21T12:47:06.653Z,75.60
2018-11-21T12:48:06.638Z,75.60
2018-11-21T12:49:06.630Z,75.46
2018-11-21T12:50:06.620Z,74.84
2018-11-21T12:51:06.606Z,74.84
2018-11-21T12:52:06.596Z,74.49